sensor_id;sensor_type;location;lat;lon;timestamp;pressure;altitude;pressure_sealevel;temperature;humidity
66801;BME280;53703;50.326;19.122;2023-07-13T00:02:32;98325.90;;;22.77;72.25
66801;BME280;53703;50.326;19.122;2023-07-13T00:05:09;98333.08;;;22.69;72.52
66801;BME280;53703;50.326;19.122;2023-07-13T00:07:45;98337.14;;;22.68;72.85
66801;BME280;53703;50.326;19.122;2023-07-13T00:10:23;98346.59;;;22.68;72.94
66801;BME280;53703;50.326;19.122;2023-07-13T00:12:58;98352.64;;;22.69;72.87
66801;BME280;53703;50.326;19.122;2023-07-13T00:15:34;98359.70;;;22.68;72.94
66801;BME280;53703;50.326;19.122;2023-07-13T00:18:28;98370.31;;;22.75;72.87
66801;BME280;53703;50.326;19.122;2023-07-13T00:21:23;98386.86;;;22.79;72.60
66801;BME280;53703;50.326;19.122;2023-07-13T00:23:58;98397.70;;;22.84;72.66
66801;BME280;53703;50.326;19.122;2023-07-13T00:26:35;98412.93;;;22.80;72.74
66801;BME280;53703;50.326;19.122;2023-07-13T00:29:12;98406.11;;;22.80;72.79
66801;BME280;53703;50.326;19.122;2023-07-13T00:31:46;98398.77;;;22.74;72.65
66801;BME280;53703;50.326;19.122;2023-07-13T00:34:22;98388.34;;;22.62;73.26
66801;BME280;53703;50.326;19.122;2023-07-13T00:36:56;98380.48;;;22.61;73.31
66801;BME280;53703;50.326;19.122;2023-07-13T00:39:30;98376.58;;;22.59;73.22
66801;BME280;53703;50.326;19.122;2023-07-13T00:42:04;98372.69;;;22.60;73.25
66801;BME280;53703;50.326;19.122;2023-07-13T00:44:41;98371.88;;;22.57;73.37
66801;BME280;53703;50.326;19.122;2023-07-13T00:47:14;98364.79;;;22.54;73.70
66801;BME280;53703;50.326;19.122;2023-07-13T00:49:51;98358.14;;;22.57;73.63
66801;BME280;53703;50.326;19.122;2023-07-13T00:52:36;98357.89;;;22.57;73.58
66801;BME280;53703;50.326;19.122;2023-07-13T00:55:12;98349.84;;;22.54;73.77
66801;BME280;53703;50.326;19.122;2023-07-13T00:57:46;98338.51;;;22.51;73.90
66801;BME280;53703;50.326;19.122;2023-07-13T01:00:21;98329.27;;;22.56;73.69
66801;BME280;53703;50.326;19.122;2023-07-13T01:02:58;98333.42;;;22.57;73.82
66801;BME280;53703;50.326;19.122;2023-07-13T01:05:33;98337.55;;;22.57;73.94
66801;BME280;53703;50.326;19.122;2023-07-13T01:08:07;98338.80;;;22.54;73.90
66801;BME280;53703;50.326;19.122;2023-07-13T01:10:41;98328.38;;;22.53;73.98
66801;BME280;53703;50.326;19.122;2023-07-13T01:13:14;98318.50;;;22.61;73.61
66801;BME280;53703;50.326;19.122;2023-07-13T01:15:51;98309.04;;;22.60;73.58
66801;BME280;53703;50.326;19.122;2023-07-13T01:18:27;98306.88;;;22.55;73.81
66801;BME280;53703;50.326;19.122;2023-07-13T01:21:03;98312.29;;;22.57;73.80
66801;BME280;53703;50.326;19.122;2023-07-13T01:23:40;98318.15;;;22.46;74.14
66801;BME280;53703;50.326;19.122;2023-07-13T01:26:15;98322.54;;;22.48;74.17
66801;BME280;53703;50.326;19.122;2023-07-13T01:28:48;98321.39;;;22.54;73.99
66801;BME280;53703;50.326;19.122;2023-07-13T01:31:25;98318.80;;;22.57;73.96
66801;BME280;53703;50.326;19.122;2023-07-13T01:34:04;98319.65;;;22.55;73.99
66801;BME280;53703;50.326;19.122;2023-07-13T01:36:38;98317.55;;;22.51;74.29
66801;BME280;53703;50.326;19.122;2023-07-13T01:39:32;98323.48;;;22.56;74.06
66801;BME280;53703;50.326;19.122;2023-07-13T01:42:26;98329.92;;;22.57;73.82
66801;BME280;53703;50.326;19.122;2023-07-13T01:45:14;98333.75;;;22.50;74.10
66801;BME280;53703;50.326;19.122;2023-07-13T01:47:50;98330.15;;;22.45;74.20
66801;BME280;53703;50.326;19.122;2023-07-13T01:50:28;98326.80;;;22.44;74.07
66801;BME280;53703;50.326;19.122;2023-07-13T01:53:10;98323.61;;;22.41;74.07
66801;BME280;53703;50.326;19.122;2023-07-13T01:55:44;98322.71;;;22.40;74.20
66801;BME280;53703;50.326;19.122;2023-07-13T01:58:17;98323.91;;;22.39;74.17
66801;BME280;53703;50.326;19.122;2023-07-13T02:00:54;98321.67;;;22.37;74.37
66801;BME280;53703;50.326;19.122;2023-07-13T02:03:30;98316.08;;;22.45;74.10
66801;BME280;53703;50.326;19.122;2023-07-13T02:06:04;98313.38;;;22.45;74.01
66801;BME280;53703;50.326;19.122;2023-07-13T02:08:41;98305.83;;;22.44;74.11
66801;BME280;53703;50.326;19.122;2023-07-13T02:11:15;98302.63;;;22.52;73.74
66801;BME280;53703;50.326;19.122;2023-07-13T02:13:49;98304.75;;;22.50;73.94
66801;BME280;53703;50.326;19.122;2023-07-13T02:16:25;98299.61;;;22.52;73.71
66801;BME280;53703;50.326;19.122;2023-07-13T02:19:02;98301.02;;;22.61;73.40
66801;BME280;53703;50.326;19.122;2023-07-13T02:21:55;98310.91;;;22.54;73.58
66801;BME280;53703;50.326;19.122;2023-07-13T02:24:29;98313.63;;;22.46;73.82
66801;BME280;53703;50.326;19.122;2023-07-13T02:27:03;98316.11;;;22.38;74.10
66801;BME280;53703;50.326;19.122;2023-07-13T02:29:36;98295.77;;;22.37;74.18
66801;BME280;53703;50.326;19.122;2023-07-13T02:32:10;98283.47;;;22.35;74.07
66801;BME280;53703;50.326;19.122;2023-07-13T02:34:45;98270.40;;;22.30;74.34
66801;BME280;53703;50.326;19.122;2023-07-13T02:37:18;98264.59;;;22.26;74.47
66801;BME280;53703;50.326;19.122;2023-07-13T02:39:52;98255.14;;;22.27;74.39
66801;BME280;53703;50.326;19.122;2023-07-13T02:42:26;98250.61;;;22.27;74.35
66801;BME280;53703;50.326;19.122;2023-07-13T02:45:00;98242.83;;;22.27;74.45
66801;BME280;53703;50.326;19.122;2023-07-13T02:47:37;98245.92;;;22.27;74.33
66801;BME280;53703;50.326;19.122;2023-07-13T02:50:11;98257.00;;;22.35;73.96
66801;BME280;53703;50.326;19.122;2023-07-13T02:52:44;98255.58;;;22.36;74.40
66801;BME280;53703;50.326;19.122;2023-07-13T02:55:21;98242.94;;;22.34;74.34
66801;BME280;53703;50.326;19.122;2023-07-13T02:57:54;98239.13;;;22.33;74.45
66801;BME280;53703;50.326;19.122;2023-07-13T03:00:28;98244.75;;;22.31;74.70
66801;BME280;53703;50.326;19.122;2023-07-13T03:03:01;98241.17;;;22.28;74.90
66801;BME280;53703;50.326;19.122;2023-07-13T03:05:43;98245.31;;;22.33;74.72
66801;BME280;53703;50.326;19.122;2023-07-13T03:08:17;98264.08;;;22.36;74.78
66801;BME280;53703;50.326;19.122;2023-07-13T03:11:04;98277.62;;;22.43;74.32
66801;BME280;53703;50.326;19.122;2023-07-13T03:13:39;98293.01;;;22.37;74.81
66801;BME280;53703;50.326;19.122;2023-07-13T03:16:22;98305.79;;;22.36;74.83
66801;BME280;53703;50.326;19.122;2023-07-13T03:18:55;98318.48;;;22.35;74.75
66801;BME280;53703;50.326;19.122;2023-07-13T03:21:29;98328.16;;;22.33;74.86
66801;BME280;53703;50.326;19.122;2023-07-13T03:24:02;98336.02;;;22.34;74.71
66801;BME280;53703;50.326;19.122;2023-07-13T03:26:39;98344.44;;;22.32;74.73
66801;BME280;53703;50.326;19.122;2023-07-13T03:29:15;98348.94;;;22.29;74.76
66801;BME280;53703;50.326;19.122;2023-07-13T03:31:52;98350.59;;;22.26;74.71
66801;BME280;53703;50.326;19.122;2023-07-13T03:34:28;98356.67;;;22.22;74.47
66801;BME280;53703;50.326;19.122;2023-07-13T03:37:02;98357.76;;;22.18;74.40
66801;BME280;53703;50.326;19.122;2023-07-13T03:39:36;98353.85;;;22.17;74.38
66801;BME280;53703;50.326;19.122;2023-07-13T03:42:10;98349.41;;;22.16;74.14
66801;BME280;53703;50.326;19.122;2023-07-13T03:44:47;98346.39;;;22.16;74.11
66801;BME280;53703;50.326;19.122;2023-07-13T03:47:33;98342.75;;;22.18;74.01
66801;BME280;53703;50.326;19.122;2023-07-13T03:50:09;98347.55;;;22.23;74.04
66801;BME280;53703;50.326;19.122;2023-07-13T03:52:45;98348.27;;;22.25;74.10
66801;BME280;53703;50.326;19.122;2023-07-13T03:55:19;98351.90;;;22.20;74.21
66801;BME280;53703;50.326;19.122;2023-07-13T03:58:24;98355.08;;;22.20;74.25
66801;BME280;53703;50.326;19.122;2023-07-13T04:00:59;98349.56;;;22.17;74.36
66801;BME280;53703;50.326;19.122;2023-07-13T04:03:36;98348.76;;;22.15;74.03
66801;BME280;53703;50.326;19.122;2023-07-13T04:06:31;98353.61;;;22.15;74.11
66801;BME280;53703;50.326;19.122;2023-07-13T04:09:25;98359.81;;;22.18;73.60
66801;BME280;53703;50.326;19.122;2023-07-13T04:12:02;98362.71;;;22.23;73.57
66801;BME280;53703;50.326;19.122;2023-07-13T04:14:35;98363.59;;;22.23;73.49
66801;BME280;53703;50.326;19.122;2023-07-13T04:17:12;98371.96;;;22.16;73.70
66801;BME280;53703;50.326;19.122;2023-07-13T04:20:07;98376.92;;;22.22;73.80
66801;BME280;53703;50.326;19.122;2023-07-13T04:22:41;98381.02;;;22.18;73.81
66801;BME280;53703;50.326;19.122;2023-07-13T04:25:14;98382.83;;;22.16;74.09
66801;BME280;53703;50.326;19.122;2023-07-13T04:27:51;98378.95;;;22.18;74.12
66801;BME280;53703;50.326;19.122;2023-07-13T04:30:25;98379.84;;;22.20;74.43
66801;BME280;53703;50.326;19.122;2023-07-13T04:33:01;98383.17;;;22.19;74.07
66801;BME280;53703;50.326;19.122;2023-07-13T04:35:39;98388.11;;;22.21;74.15
66801;BME280;53703;50.326;19.122;2023-07-13T04:38:23;98386.70;;;22.24;74.24
66801;BME280;53703;50.326;19.122;2023-07-13T04:41:04;98383.23;;;22.27;74.15
66801;BME280;53703;50.326;19.122;2023-07-13T04:43:41;98372.39;;;22.32;74.11
66801;BME280;53703;50.326;19.122;2023-07-13T04:46:17;98356.66;;;22.32;74.08
66801;BME280;53703;50.326;19.122;2023-07-13T04:48:54;98349.41;;;22.28;74.33
66801;BME280;53703;50.326;19.122;2023-07-13T04:51:30;98346.90;;;22.31;74.44
66801;BME280;53703;50.326;19.122;2023-07-13T04:54:04;98345.48;;;22.36;74.43
66801;BME280;53703;50.326;19.122;2023-07-13T04:56:45;98342.94;;;22.34;74.44
66801;BME280;53703;50.326;19.122;2023-07-13T04:59:28;98344.45;;;22.35;74.41
66801;BME280;53703;50.326;19.122;2023-07-13T05:02:02;98348.08;;;22.30;74.56
66801;BME280;53703;50.326;19.122;2023-07-13T05:04:38;98346.20;;;22.34;74.28
66801;BME280;53703;50.326;19.122;2023-07-13T05:07:13;98345.31;;;22.43;73.52
66801;BME280;53703;50.326;19.122;2023-07-13T05:09:47;98333.77;;;22.41;73.81
66801;BME280;53703;50.326;19.122;2023-07-13T05:12:20;98327.17;;;22.41;74.04
66801;BME280;53703;50.326;19.122;2023-07-13T05:15:03;98327.08;;;22.38;74.21
66801;BME280;53703;50.326;19.122;2023-07-13T05:17:40;98329.20;;;22.36;74.14
66801;BME280;53703;50.326;19.122;2023-07-13T05:20:18;98336.24;;;22.42;73.59
66801;BME280;53703;50.326;19.122;2023-07-13T05:22:52;98337.98;;;22.53;73.09
66801;BME280;53703;50.326;19.122;2023-07-13T05:25:25;98343.61;;;22.50;73.53
66801;BME280;53703;50.326;19.122;2023-07-13T05:28:08;98346.02;;;22.53;73.13
66801;BME280;53703;50.326;19.122;2023-07-13T05:30:46;98346.54;;;22.59;72.85
66801;BME280;53703;50.326;19.122;2023-07-13T05:33:20;98345.34;;;22.56;73.06
66801;BME280;53703;50.326;19.122;2023-07-13T05:35:54;98343.67;;;22.58;72.89
66801;BME280;53703;50.326;19.122;2023-07-13T05:38:27;98344.80;;;22.61;72.47
66801;BME280;53703;50.326;19.122;2023-07-13T05:41:01;98341.33;;;22.64;71.99
66801;BME280;53703;50.326;19.122;2023-07-13T05:43:47;98341.34;;;22.67;72.58
66801;BME280;53703;50.326;19.122;2023-07-13T05:46:24;98342.18;;;22.76;72.46
66801;BME280;53703;50.326;19.122;2023-07-13T05:49:01;98336.59;;;22.70;72.60
66801;BME280;53703;50.326;19.122;2023-07-13T05:51:46;98338.17;;;22.67;72.44
66801;BME280;53703;50.326;19.122;2023-07-13T05:54:39;98339.14;;;22.72;71.96
66801;BME280;53703;50.326;19.122;2023-07-13T05:57:13;98333.35;;;22.75;72.03
66801;BME280;53703;50.326;19.122;2023-07-13T06:00:09;98332.59;;;22.84;71.21
66801;BME280;53703;50.326;19.122;2023-07-13T06:02:43;98326.14;;;22.79;71.20
66801;BME280;53703;50.326;19.122;2023-07-13T06:05:20;98325.89;;;22.99;70.91
66801;BME280;53703;50.326;19.122;2023-07-13T06:07:53;98322.09;;;23.00;71.03
66801;BME280;53703;50.326;19.122;2023-07-13T06:10:27;98325.20;;;23.06;70.82
66801;BME280;53703;50.326;19.122;2023-07-13T06:13:00;98327.29;;;23.07;70.63
66801;BME280;53703;50.326;19.122;2023-07-13T06:15:34;98326.84;;;23.19;70.18
66801;BME280;53703;50.326;19.122;2023-07-13T06:18:07;98324.39;;;23.19;70.36
66801;BME280;53703;50.326;19.122;2023-07-13T06:20:41;98323.98;;;23.19;70.53
66801;BME280;53703;50.326;19.122;2023-07-13T06:23:14;98322.01;;;23.24;69.93
66801;BME280;53703;50.326;19.122;2023-07-13T06:25:48;98322.28;;;23.09;69.96
66801;BME280;53703;50.326;19.122;2023-07-13T06:28:21;98325.35;;;23.26;69.52
66801;BME280;53703;50.326;19.122;2023-07-13T06:30:55;98321.14;;;23.27;69.33
66801;BME280;53703;50.326;19.122;2023-07-13T06:33:28;98319.14;;;23.24;69.74
66801;BME280;53703;50.326;19.122;2023-07-13T06:36:02;98317.14;;;23.16;70.11
66801;BME280;53703;50.326;19.122;2023-07-13T06:38:36;98317.08;;;23.26;69.66
66801;BME280;53703;50.326;19.122;2023-07-13T06:41:11;98313.16;;;23.37;69.21
66801;BME280;53703;50.326;19.122;2023-07-13T06:43:46;98318.10;;;23.39;68.94
66801;BME280;53703;50.326;19.122;2023-07-13T06:46:20;98322.55;;;23.34;68.79
66801;BME280;53703;50.326;19.122;2023-07-13T06:48:54;98325.65;;;23.34;68.70
66801;BME280;53703;50.326;19.122;2023-07-13T06:51:30;98327.15;;;23.34;68.54
66801;BME280;53703;50.326;19.122;2023-07-13T06:54:04;98324.21;;;23.33;68.52
66801;BME280;53703;50.326;19.122;2023-07-13T06:56:41;98321.00;;;23.31;68.54
66801;BME280;53703;50.326;19.122;2023-07-13T06:59:16;98323.21;;;23.30;68.32
66801;BME280;53703;50.326;19.122;2023-07-13T07:01:50;98330.13;;;23.27;68.25
66801;BME280;53703;50.326;19.122;2023-07-13T07:04:23;98330.84;;;23.24;68.39
66801;BME280;53703;50.326;19.122;2023-07-13T07:06:57;98334.26;;;23.23;68.36
66801;BME280;53703;50.326;19.122;2023-07-13T07:09:30;98337.91;;;23.22;68.57
66801;BME280;53703;50.326;19.122;2023-07-13T07:12:06;98341.58;;;23.22;68.33
66801;BME280;53703;50.326;19.122;2023-07-13T07:14:42;98346.18;;;23.22;68.38
66801;BME280;53703;50.326;19.122;2023-07-13T07:17:16;98348.25;;;23.23;68.20
66801;BME280;53703;50.326;19.122;2023-07-13T07:19:49;98351.04;;;23.24;68.06
66801;BME280;53703;50.326;19.122;2023-07-13T07:22:26;98358.52;;;23.25;67.99
66801;BME280;53703;50.326;19.122;2023-07-13T07:25:01;98362.41;;;23.24;67.94
66801;BME280;53703;50.326;19.122;2023-07-13T07:27:35;98362.56;;;23.19;68.01
66801;BME280;53703;50.326;19.122;2023-07-13T07:30:13;98364.07;;;23.18;68.08
66801;BME280;53703;50.326;19.122;2023-07-13T07:32:53;98369.15;;;23.18;68.15
66801;BME280;53703;50.326;19.122;2023-07-13T07:35:28;98373.13;;;23.18;68.05
66801;BME280;53703;50.326;19.122;2023-07-13T07:38:07;98370.50;;;23.16;68.13
66801;BME280;53703;50.326;19.122;2023-07-13T07:40:42;98371.20;;;23.13;68.17
66801;BME280;53703;50.326;19.122;2023-07-13T07:43:19;98373.59;;;23.13;68.31
66801;BME280;53703;50.326;19.122;2023-07-13T07:45:52;98374.94;;;23.13;68.17
66801;BME280;53703;50.326;19.122;2023-07-13T07:48:26;98375.17;;;23.12;68.17
66801;BME280;53703;50.326;19.122;2023-07-13T07:50:59;98376.04;;;23.10;68.10
66801;BME280;53703;50.326;19.122;2023-07-13T07:53:33;98377.07;;;23.09;68.14
66801;BME280;53703;50.326;19.122;2023-07-13T07:56:06;98377.86;;;23.08;68.13
66801;BME280;53703;50.326;19.122;2023-07-13T07:58:43;98377.38;;;23.07;68.10
66801;BME280;53703;50.326;19.122;2023-07-13T08:01:19;98377.70;;;23.08;68.19
66801;BME280;53703;50.326;19.122;2023-07-13T08:03:58;98387.24;;;23.05;68.23
66801;BME280;53703;50.326;19.122;2023-07-13T08:06:35;98389.55;;;23.09;68.46
66801;BME280;53703;50.326;19.122;2023-07-13T08:09:12;98388.48;;;23.15;68.27
66801;BME280;53703;50.326;19.122;2023-07-13T08:11:45;98381.91;;;23.08;68.47
66801;BME280;53703;50.326;19.122;2023-07-13T08:14:22;98373.43;;;23.13;68.56
66801;BME280;53703;50.326;19.122;2023-07-13T08:17:07;98371.11;;;23.10;68.73
66801;BME280;53703;50.326;19.122;2023-07-13T08:19:41;98367.13;;;23.08;68.88
66801;BME280;53703;50.326;19.122;2023-07-13T08:22:14;98366.25;;;23.08;68.84
66801;BME280;53703;50.326;19.122;2023-07-13T08:24:48;98360.14;;;23.11;68.87
66801;BME280;53703;50.326;19.122;2023-07-13T08:27:28;98354.84;;;23.19;69.00
66801;BME280;53703;50.326;19.122;2023-07-13T08:30:07;98346.94;;;23.10;69.42
66801;BME280;53703;50.326;19.122;2023-07-13T08:32:42;98348.61;;;23.15;69.13
66801;BME280;53703;50.326;19.122;2023-07-13T08:35:16;98344.89;;;23.17;69.09
66801;BME280;53703;50.326;19.122;2023-07-13T08:37:52;98344.41;;;23.16;68.83
66801;BME280;53703;50.326;19.122;2023-07-13T08:40:29;98347.77;;;23.19;68.48
66801;BME280;53703;50.326;19.122;2023-07-13T08:43:07;98348.60;;;23.10;68.83
66801;BME280;53703;50.326;19.122;2023-07-13T08:45:45;98350.29;;;23.13;68.70
66801;BME280;53703;50.326;19.122;2023-07-13T08:48:23;98347.50;;;23.12;68.88
66801;BME280;53703;50.326;19.122;2023-07-13T08:51:03;98349.65;;;23.15;68.95
66801;BME280;53703;50.326;19.122;2023-07-13T08:53:42;98348.02;;;23.23;69.10
66801;BME280;53703;50.326;19.122;2023-07-13T08:56:24;98349.68;;;23.21;69.19
66801;BME280;53703;50.326;19.122;2023-07-13T08:59:09;98346.81;;;23.18;69.40
66801;BME280;53703;50.326;19.122;2023-07-13T09:02:05;98346.09;;;23.20;69.53
66801;BME280;53703;50.326;19.122;2023-07-13T09:04:52;98344.90;;;23.25;69.25
66801;BME280;53703;50.326;19.122;2023-07-13T09:07:41;98348.51;;;23.28;69.37
66801;BME280;53703;50.326;19.122;2023-07-13T09:10:28;98351.67;;;23.40;68.90
66801;BME280;53703;50.326;19.122;2023-07-13T09:13:20;98354.87;;;23.44;68.67
66801;BME280;53703;50.326;19.122;2023-07-13T09:15:56;98356.85;;;23.42;68.71
66801;BME280;53703;50.326;19.122;2023-07-13T09:18:35;98356.68;;;23.39;68.67
66801;BME280;53703;50.326;19.122;2023-07-13T09:21:14;98361.79;;;23.41;68.84
66801;BME280;53703;50.326;19.122;2023-07-13T09:23:47;98358.58;;;23.34;69.03
66801;BME280;53703;50.326;19.122;2023-07-13T09:26:23;98361.42;;;23.33;69.07
66801;BME280;53703;50.326;19.122;2023-07-13T09:29:03;98353.67;;;23.28;69.15
66801;BME280;53703;50.326;19.122;2023-07-13T09:31:44;98356.48;;;23.32;68.85
66801;BME280;53703;50.326;19.122;2023-07-13T09:34:19;98362.17;;;23.39;68.53
66801;BME280;53703;50.326;19.122;2023-07-13T09:36:52;98365.09;;;23.35;68.18
66801;BME280;53703;50.326;19.122;2023-07-13T09:39:29;98364.48;;;23.06;68.78
66801;BME280;53703;50.326;19.122;2023-07-13T09:42:12;98372.73;;;23.16;68.53
66801;BME280;53703;50.326;19.122;2023-07-13T09:44:56;98377.86;;;23.10;68.22
66801;BME280;53703;50.326;19.122;2023-07-13T09:47:33;98389.14;;;23.07;68.47
66801;BME280;53703;50.326;19.122;2023-07-13T09:50:23;98397.69;;;22.67;69.19
66801;BME280;53703;50.326;19.122;2023-07-13T09:53:19;98403.70;;;22.52;69.55
66801;BME280;53703;50.326;19.122;2023-07-13T09:56:25;98410.33;;;22.50;69.32
66801;BME280;53703;50.326;19.122;2023-07-13T09:59:27;98421.55;;;22.51;69.05
66801;BME280;53703;50.326;19.122;2023-07-13T10:02:31;98434.41;;;22.51;68.93
66801;BME280;53703;50.326;19.122;2023-07-13T10:05:17;98441.11;;;22.45;67.65
66801;BME280;53703;50.326;19.122;2023-07-13T10:07:58;98444.30;;;22.36;66.97
66801;BME280;53703;50.326;19.122;2023-07-13T10:10:59;98454.98;;;22.40;66.82
66801;BME280;53703;50.326;19.122;2023-07-13T10:13:57;98463.66;;;22.33;65.40
66801;BME280;53703;50.326;19.122;2023-07-13T10:16:38;98474.35;;;22.29;65.14
66801;BME280;53703;50.326;19.122;2023-07-13T10:19:34;98477.36;;;22.28;65.29
66801;BME280;53703;50.326;19.122;2023-07-13T10:22:19;98491.27;;;22.31;65.12
66801;BME280;53703;50.326;19.122;2023-07-13T10:25:22;98506.34;;;22.20;65.52
66801;BME280;53703;50.326;19.122;2023-07-13T10:28:31;98512.84;;;22.19;65.91
66801;BME280;53703;50.326;19.122;2023-07-13T10:31:19;98513.07;;;22.17;66.94
66801;BME280;53703;50.326;19.122;2023-07-13T10:34:14;98518.64;;;22.19;66.57
66801;BME280;53703;50.326;19.122;2023-07-13T10:37:14;98522.14;;;22.19;66.46
66801;BME280;53703;50.326;19.122;2023-07-13T10:40:00;98528.26;;;22.19;66.64
66801;BME280;53703;50.326;19.122;2023-07-13T10:42:58;98535.30;;;22.25;66.26
66801;BME280;53703;50.326;19.122;2023-07-13T10:45:38;98538.50;;;22.35;66.16
66801;BME280;53703;50.326;19.122;2023-07-13T10:48:22;98535.08;;;22.27;66.62
66801;BME280;53703;50.326;19.122;2023-07-13T10:51:19;98532.20;;;22.24;67.50
66801;BME280;53703;50.326;19.122;2023-07-13T10:54:30;98532.98;;;22.24;67.18
66801;BME280;53703;50.326;19.122;2023-07-13T10:57:19;98534.58;;;22.02;67.45
66801;BME280;53703;50.326;19.122;2023-07-13T11:03:01;98535.20;;;22.07;67.15
66801;BME280;53703;50.326;19.122;2023-07-13T11:05:41;98536.40;;;22.00;66.96
66801;BME280;53703;50.326;19.122;2023-07-13T11:08:50;98541.52;;;21.98;66.97
66801;BME280;53703;50.326;19.122;2023-07-13T11:11:39;98545.00;;;21.89;66.85
66801;BME280;53703;50.326;19.122;2023-07-13T11:14:36;98546.48;;;21.94;66.95
66801;BME280;53703;50.326;19.122;2023-07-13T11:17:46;98553.02;;;21.91;66.73
66801;BME280;53703;50.326;19.122;2023-07-13T11:20:42;98555.20;;;22.06;66.33
66801;BME280;53703;50.326;19.122;2023-07-13T11:23:44;98559.98;;;22.00;66.61
66801;BME280;53703;50.326;19.122;2023-07-13T11:26:50;98557.14;;;21.96;66.51
66801;BME280;53703;50.326;19.122;2023-07-13T11:29:45;98555.98;;;21.78;67.25
66801;BME280;53703;50.326;19.122;2023-07-13T11:32:39;98553.64;;;21.88;66.45
66801;BME280;53703;50.326;19.122;2023-07-13T11:35:35;98556.52;;;21.89;67.05
66801;BME280;53703;50.326;19.122;2023-07-13T11:38:38;98556.61;;;21.84;67.19
66801;BME280;53703;50.326;19.122;2023-07-13T11:41:37;98559.55;;;21.98;67.07
66801;BME280;53703;50.326;19.122;2023-07-13T11:44:24;98558.59;;;21.91;67.36
66801;BME280;53703;50.326;19.122;2023-07-13T11:47:11;98558.05;;;21.92;67.21
66801;BME280;53703;50.326;19.122;2023-07-13T11:50:19;98554.36;;;21.97;66.73
66801;BME280;53703;50.326;19.122;2023-07-13T11:52:57;98550.34;;;21.97;66.84
66801;BME280;53703;50.326;19.122;2023-07-13T11:55:53;98551.67;;;21.83;67.32
66801;BME280;53703;50.326;19.122;2023-07-13T11:58:33;98543.58;;;21.83;67.64
66801;BME280;53703;50.326;19.122;2023-07-13T12:01:18;98539.49;;;21.86;67.42
66801;BME280;53703;50.326;19.122;2023-07-13T12:04:22;98534.84;;;21.82;67.38
66801;BME280;53703;50.326;19.122;2023-07-13T12:07:16;98541.07;;;21.85;67.06
66801;BME280;53703;50.326;19.122;2023-07-13T12:10:02;98551.45;;;21.77;67.64
66801;BME280;53703;50.326;19.122;2023-07-13T12:12:59;98554.71;;;21.85;67.88
66801;BME280;53703;50.326;19.122;2023-07-13T12:15:54;98553.06;;;21.87;67.82
66801;BME280;53703;50.326;19.122;2023-07-13T12:18:39;98553.58;;;21.90;68.29
66801;BME280;53703;50.326;19.122;2023-07-13T12:21:41;98549.61;;;21.84;68.09
66801;BME280;53703;50.326;19.122;2023-07-13T12:24:36;98556.17;;;21.75;67.73
66801;BME280;53703;50.326;19.122;2023-07-13T12:27:23;98557.40;;;21.78;67.81
66801;BME280;53703;50.326;19.122;2023-07-13T12:30:30;98554.19;;;21.80;68.21
66801;BME280;53703;50.326;19.122;2023-07-13T12:33:31;98553.81;;;21.89;68.58
66801;BME280;53703;50.326;19.122;2023-07-13T12:36:15;98556.40;;;22.00;68.21
66801;BME280;53703;50.326;19.122;2023-07-13T12:39:15;98560.52;;;22.00;68.49
66801;BME280;53703;50.326;19.122;2023-07-13T12:42:00;98562.50;;;21.79;68.99
66801;BME280;53703;50.326;19.122;2023-07-13T12:45:19;98566.09;;;21.87;69.38
66801;BME280;53703;50.326;19.122;2023-07-13T12:48:19;98576.33;;;21.99;68.38
66801;BME280;53703;50.326;19.122;2023-07-13T12:51:29;98572.06;;;22.02;68.71
66801;BME280;53703;50.326;19.122;2023-07-13T12:54:23;98570.83;;;21.92;69.01
66801;BME280;53703;50.326;19.122;2023-07-13T12:57:18;98580.91;;;21.97;69.07
66801;BME280;53703;50.326;19.122;2023-07-13T12:59:56;98576.67;;;22.03;69.02
66801;BME280;53703;50.326;19.122;2023-07-13T13:02:35;98569.52;;;21.95;69.33
66801;BME280;53703;50.326;19.122;2023-07-13T13:05:30;98572.73;;;21.97;69.13
66801;BME280;53703;50.326;19.122;2023-07-13T13:08:15;98576.65;;;22.00;69.18
66801;BME280;53703;50.326;19.122;2023-07-13T13:10:52;98585.23;;;22.01;69.24
66801;BME280;53703;50.326;19.122;2023-07-13T13:13:47;98583.12;;;22.05;69.21
66801;BME280;53703;50.326;19.122;2023-07-13T13:16:33;98585.84;;;22.07;69.50
66801;BME280;53703;50.326;19.122;2023-07-13T13:19:16;98582.96;;;22.05;69.71
66801;BME280;53703;50.326;19.122;2023-07-13T13:21:55;98582.70;;;22.09;69.12
66801;BME280;53703;50.326;19.122;2023-07-13T13:25:01;98584.95;;;22.04;69.01
66801;BME280;53703;50.326;19.122;2023-07-13T13:28:24;98592.16;;;22.10;68.76
66801;BME280;53703;50.326;19.122;2023-07-13T13:40:23;98596.77;;;21.84;71.54
66801;BME280;53703;50.326;19.122;2023-07-13T13:43:24;98595.63;;;21.81;71.25
66801;BME280;53703;50.326;19.122;2023-07-13T13:46:18;98597.45;;;22.01;71.06
66801;BME280;53703;50.326;19.122;2023-07-13T13:49:16;98603.09;;;21.82;71.74
66801;BME280;53703;50.326;19.122;2023-07-13T13:52:00;98599.40;;;21.85;71.41
66801;BME280;53703;50.326;19.122;2023-07-13T13:54:44;98604.49;;;21.86;70.41
66801;BME280;53703;50.326;19.122;2023-07-13T13:57:24;98604.02;;;21.98;69.38
66801;BME280;53703;50.326;19.122;2023-07-13T14:00:21;98604.85;;;22.02;69.42
66801;BME280;53703;50.326;19.122;2023-07-13T14:03:15;98601.34;;;22.08;69.66
66801;BME280;53703;50.326;19.122;2023-07-13T14:06:12;98603.69;;;22.05;69.63
66801;BME280;53703;50.326;19.122;2023-07-13T14:09:11;98607.36;;;22.06;69.10
66801;BME280;53703;50.326;19.122;2023-07-13T14:11:56;98604.40;;;22.05;69.26
66801;BME280;53703;50.326;19.122;2023-07-13T14:14:40;98605.89;;;22.03;69.29
66801;BME280;53703;50.326;19.122;2023-07-13T14:17:25;98611.95;;;21.98;69.10
66801;BME280;53703;50.326;19.122;2023-07-13T14:20:11;98620.11;;;22.03;69.14